MSC Turchia — A8IL9 — position and weather

sailwx.info

Track history (hours):
 
Tides and Currents Weather Stations Pressure Air Temp Water Temp Dewpoint Dewpoint Depression Visibility Wind Speed Wind Dir Waves Ship Positions

MSC Turchia

Last reported at 2015-Jul-31 08:33 UTC. Time now 2015-Aug-01 09:49 UTC.
Position N 25°32' W 079°38'.

Length 276 m; beam 40 m; draft 14 m.

Type: Ship. MMSI: 636091212.

Date/timePositionNaut miles runAvg speedWind from/ knotsBaromVisibWave heightAir tempDewpointWater temp
2015-Jul-31 08:33N 25°32' W 079°38'1616.2
2015-Jul-31 07:34N 25°48' W 079°41'1717.1
2015-Jul-31 06:34N 25°59' W 079°55'1212.2
2015-Jul-31 05:34N 26°05' W 080°07'1 1.1
2015-Jul-31 04:32N 26°04' W 080°07'0 0.0
2015-Jul-31 03:32N 26°04' W 080°07'0 0.0
2015-Jul-31 02:32N 26°04' W 080°07'0 0.0
2015-Jul-31 01:32N 26°04' W 080°07'0 0.0
2015-Jul-31 00:32N 26°04' W 080°07'0 0.0
2015-Jul-30 23:32N 26°04' W 080°07'0 0.0
2015-Jul-30 22:32N 26°04' W 080°07'0 0.0
2015-Jul-30 21:32N 26°04' W 080°07'0 0.0
2015-Jul-30 20:32N 26°04' W 080°07'0 0.0
2015-Jul-30 19:32N 26°04' W 080°07'0 0.0
2015-Jul-30 18:32N 26°04' W 080°07'0 0.0
2015-Jul-30 17:32N 26°04' W 080°07'0 0.0
2015-Jul-30 16:32N 26°04' W 080°07'0 0.0
2015-Jul-30 15:32N 26°04' W 080°07'0 0.0
2015-Jul-30 14:32N 26°04' W 080°07'0 0.0
2015-Jul-30 13:32N 26°04' W 080°07'0 0.0
2015-Jul-30 12:32N 26°04' W 080°07'0 0.0
2015-Jul-30 11:33N 26°04' W 080°07'1 1.0
2015-Jul-30 10:34N 26°05' W 080°07'6 5.5
2015-Jul-30 09:33N 26°09' W 080°02'1010.0
2015-Jul-30 08:33N 26°18' W 079°59'1413.8
2015-Jul-30 07:33N 26°32' W 079°56'1414.0
2015-Jul-30 06:33N 26°46' W 079°55'1211.9
2015-Jul-30 05:34N 26°58' W 079°56'1212.2
2015-Jul-30 04:33N 27°10' W 079°57'20712.9
2015-Jul-29 12:30N 30°24' W 081°21'14 2.0
2015-Jul-29 05:28N 30°21' W 081°37'  
2015-Jul-26 11:09N 35°40' W 075°05'1015.5
2015-Jul-26 10:32N 35°49' W 075°04'1515.1
2015-Jul-26 09:33N 36°04' W 075°06'3115.4
2015-Jul-26 07:32N 36°33' W 075°20'108 3.3
2015-Jul-24 22:32N 38°16' W 074°43'1313.0
2015-Jul-24 21:33N 38°29' W 074°46'1313.2
2015-Jul-24 20:33N 38°40' W 074°55'1313.5
2015-Jul-24 19:33N 38°51' W 075°04'1413.6
2015-Jul-24 18:33N 39°04' W 075°11'1414.5
2015-Jul-24 17:33N 39°16' W 075°21'1514.5
2015-Jul-24 16:33N 39°27' W 075°33'1313.4
2015-Jul-24 15:34N 39°40' W 075°32'1111.5
2015-Jul-24 14:34N 39°49' W 075°23'10 9.5
2015-Jul-24 13:34N 39°53' W 075°11'3 2.5
2015-Jul-24 12:31N 39°54' W 075°08'0 0.0
2015-Jul-24 11:31N 39°54' W 075°08'0 0.0
2015-Jul-24 10:31N 39°54' W 075°08'0 0.0
2015-Jul-24 09:31N 39°54' W 075°08'0 0.0
2015-Jul-24 08:31N 39°54' W 075°08'0 0.0
2015-Jul-24 07:31N 39°54' W 075°08'0 0.0
2015-Jul-24 06:31N 39°54' W 075°08'0 0.0
2015-Jul-24 05:31N 39°54' W 075°08'0 0.0
2015-Jul-24 04:31N 39°54' W 075°08'0 0.0
2015-Jul-24 03:31N 39°54' W 075°08'0 0.0
2015-Jul-24 02:31N 39°54' W 075°08'0 0.0
2015-Jul-24 01:31N 39°54' W 075°08'0 0.0
2015-Jul-24 00:31N 39°54' W 075°08'0 0.0
2015-Jul-23 23:31N 39°54' W 075°08'0 0.0
2015-Jul-23 22:31N 39°54' W 075°08'2 2.5
2015-Jul-23 21:34N 39°53' W 075°11'1110.7
2015-Jul-23 20:34N 39°49' W 075°24'1313.1
2015-Jul-23 19:34N 39°38' W 075°34'1515.0
2015-Jul-23 18:34N 39°24' W 075°29'1817.6
2015-Jul-23 17:33N 39°10' W 075°15'1717.5
2015-Jul-23 16:34N 38°54' W 075°05'1212.0
2015-Jul-23 15:34N 38°44' W 074°57'1313.1
2015-Jul-23 14:33N 38°34' W 074°46'10 8.9
2015-Jul-23 13:25N 38°34' W 074°33'1414.8
2015-Jul-23 12:27N 38°47' W 074°26'1315.0
2015-Jul-23 11:33N 38°59' W 074°18'1515.2
2015-Jul-23 10:33N 39°13' W 074°09'1515.1
2015-Jul-23 09:33N 39°26' W 074°01'1514.9
2015-Jul-23 08:33N 39°40' W 073°54'1514.9
2015-Jul-23 07:33N 39°55' W 073°51'1515.2
2015-Jul-23 06:33N 40°10' W 073°50'1515.0
2015-Jul-23 05:34N 40°25' W 073°49'1515.1
2015-Jul-23 04:34N 40°36' W 074°03'4 4.4
2015-Jul-23 03:33N 40°40' W 074°05'0 0.0
2015-Jul-23 02:33N 40°40' W 074°05'0 0.0
2015-Jul-23 01:33N 40°40' W 074°05'0 0.0
2015-Jul-23 00:33N 40°40' W 074°05'0 0.0
2015-Jul-22 23:33N 40°40' W 074°05'0 0.0
2015-Jul-22 22:33N 40°40' W 074°05'0 0.0
2015-Jul-22 21:33N 40°40' W 074°05'0 0.0
2015-Jul-22 20:33N 40°40' W 074°05'0 0.0
2015-Jul-22 19:33N 40°40' W 074°05'0 0.0
2015-Jul-22 18:33N 40°40' W 074°05'0 0.0
2015-Jul-22 17:33N 40°40' W 074°05'0 0.0
2015-Jul-22 16:33N 40°40' W 074°05'0 0.0
2015-Jul-22 15:33N 40°40' W 074°05'0 0.0
2015-Jul-22 14:33N 40°40' W 074°05'0 0.0
2015-Jul-22 13:33N 40°40' W 074°05'0 0.0
2015-Jul-22 12:33N 40°40' W 074°05'0 0.0
2015-Jul-22 11:33N 40°40' W 074°05'0 0.0
2015-Jul-22 10:33N 40°40' W 074°05'0 0.0
2015-Jul-22 09:33N 40°40' W 074°05'0 0.0
2015-Jul-22 08:33N 40°40' W 074°05'0 0.0
2015-Jul-22 07:33N 40°40' W 074°05'0 0.0
2015-Jul-22 06:33N 40°40' W 074°05'0 0.0
2015-Jul-22 05:33N 40°40' W 074°05'0 0.0
2015-Jul-22 04:33N 40°40' W 074°05'0 0.0
2015-Jul-22 03:33N 40°40' W 074°05'0 0.0
2015-Jul-22 02:33N 40°40' W 074°05'0 0.0
2015-Jul-22 01:33N 40°40' W 074°05'1 1.2
2015-Jul-22 00:33N 40°40' W 074°04'7 7.2
2015-Jul-21 23:33N 40°33' W 074°01'1313.2
2015-Jul-21 22:33N 40°26' W 073°47'1312.7
2015-Jul-21 21:33N 40°19' W 073°33'1111.2
2015-Jul-21 20:33N 40°12' W 073°21'1110.6
2015-Jul-21 19:33N 40°05' W 073°11'1110.6
2015-Jul-21 18:33N 39°58' W 073°01'1211.8
2015-Jul-21 17:33N 39°50' W 072°49'1312.7
2015-Jul-21 16:33N 39°41' W 072°37'1110.6
2015-Jul-21 15:33N 39°33' W 072°29'1111.3
2015-Jul-21 14:33N 39°24' W 072°19'1111.4
2015-Jul-21 13:33N 39°17' W 072°08'1211.6
2015-Jul-21 12:33N 39°09' W 071°57'1211.8
2015-Jul-21 11:34N 39°01' W 071°46'1211.8
2015-Jul-21 10:33N 38°52' W 071°36'1211.6
2015-Jul-21 09:33N 38°44' W 071°25'1211.8
2015-Jul-21 08:33N 38°36' W 071°14'  
Track history (hours):
 
Tides and Currents Weather Stations Pressure Air Temp Water Temp Dewpoint Dewpoint Depression Visibility Wind Speed Wind Dir Waves Ship Positions

MSC Turchia

Last reported at 2015-Jul-31 08:33 UTC. Time now 2015-Aug-01 09:49 UTC.
Position N 25°32' W 079°38'.

Length 276 m; beam 40 m; draft 14 m.

Type: Ship. MMSI: 636091212.

Date/timePositionNaut miles runAvg speedWind from/ knotsBaromVisibWave heightAir tempDewpointWater temp
2015-Jul-31 08:33N 25°32' W 079°38'1616.2
2015-Jul-31 07:34N 25°48' W 079°41'1717.1
2015-Jul-31 06:34N 25°59' W 079°55'1212.2
2015-Jul-31 05:34N 26°05' W 080°07'1 1.1
2015-Jul-31 04:32N 26°04' W 080°07'0 0.0
2015-Jul-31 03:32N 26°04' W 080°07'0 0.0
2015-Jul-31 02:32N 26°04' W 080°07'0 0.0
2015-Jul-31 01:32N 26°04' W 080°07'0 0.0
2015-Jul-31 00:32N 26°04' W 080°07'0 0.0
2015-Jul-30 23:32N 26°04' W 080°07'0 0.0
2015-Jul-30 22:32N 26°04' W 080°07'0 0.0
2015-Jul-30 21:32N 26°04' W 080°07'0 0.0
2015-Jul-30 20:32N 26°04' W 080°07'0 0.0
2015-Jul-30 19:32N 26°04' W 080°07'0 0.0
2015-Jul-30 18:32N 26°04' W 080°07'0 0.0
2015-Jul-30 17:32N 26°04' W 080°07'0 0.0
2015-Jul-30 16:32N 26°04' W 080°07'0 0.0
2015-Jul-30 15:32N 26°04' W 080°07'0 0.0
2015-Jul-30 14:32N 26°04' W 080°07'0 0.0
2015-Jul-30 13:32N 26°04' W 080°07'0 0.0
2015-Jul-30 12:32N 26°04' W 080°07'0 0.0
2015-Jul-30 11:33N 26°04' W 080°07'1 1.0
2015-Jul-30 10:34N 26°05' W 080°07'6 5.5
2015-Jul-30 09:33N 26°09' W 080°02'1010.0
2015-Jul-30 08:33N 26°18' W 079°59'1413.8
2015-Jul-30 07:33N 26°32' W 079°56'1414.0
2015-Jul-30 06:33N 26°46' W 079°55'1211.9
2015-Jul-30 05:34N 26°58' W 079°56'1212.2
2015-Jul-30 04:33N 27°10' W 079°57'20712.9
2015-Jul-29 12:30N 30°24' W 081°21'14 2.0
2015-Jul-29 05:28N 30°21' W 081°37'  
2015-Jul-26 11:09N 35°40' W 075°05'1015.5
2015-Jul-26 10:32N 35°49' W 075°04'1515.1
2015-Jul-26 09:33N 36°04' W 075°06'3115.4
2015-Jul-26 07:32N 36°33' W 075°20'108 3.3
2015-Jul-24 22:32N 38°16' W 074°43'1313.0
2015-Jul-24 21:33N 38°29' W 074°46'1313.2
2015-Jul-24 20:33N 38°40' W 074°55'1313.5
2015-Jul-24 19:33N 38°51' W 075°04'1413.6
2015-Jul-24 18:33N 39°04' W 075°11'1414.5
2015-Jul-24 17:33N 39°16' W 075°21'1514.5
2015-Jul-24 16:33N 39°27' W 075°33'1313.4
2015-Jul-24 15:34N 39°40' W 075°32'1111.5
2015-Jul-24 14:34N 39°49' W 075°23'10 9.5
2015-Jul-24 13:34N 39°53' W 075°11'3 2.5
2015-Jul-24 12:31N 39°54' W 075°08'0 0.0
2015-Jul-24 11:31N 39°54' W 075°08'0 0.0
2015-Jul-24 10:31N 39°54' W 075°08'0 0.0
2015-Jul-24 09:31N 39°54' W 075°08'0 0.0
2015-Jul-24 08:31N 39°54' W 075°08'0 0.0
2015-Jul-24 07:31N 39°54' W 075°08'0 0.0
2015-Jul-24 06:31N 39°54' W 075°08'0 0.0
2015-Jul-24 05:31N 39°54' W 075°08'0 0.0
2015-Jul-24 04:31N 39°54' W 075°08'0 0.0
2015-Jul-24 03:31N 39°54' W 075°08'0 0.0
2015-Jul-24 02:31N 39°54' W 075°08'0 0.0
2015-Jul-24 01:31N 39°54' W 075°08'0 0.0
2015-Jul-24 00:31N 39°54' W 075°08'0 0.0
2015-Jul-23 23:31N 39°54' W 075°08'0 0.0
2015-Jul-23 22:31N 39°54' W 075°08'2 2.5
2015-Jul-23 21:34N 39°53' W 075°11'1110.7
2015-Jul-23 20:34N 39°49' W 075°24'1313.1
2015-Jul-23 19:34N 39°38' W 075°34'1515.0
2015-Jul-23 18:34N 39°24' W 075°29'1817.6
2015-Jul-23 17:33N 39°10' W 075°15'1717.5
2015-Jul-23 16:34N 38°54' W 075°05'1212.0
2015-Jul-23 15:34N 38°44' W 074°57'1313.1
2015-Jul-23 14:33N 38°34' W 074°46'10 8.9
2015-Jul-23 13:25N 38°34' W 074°33'1414.8
2015-Jul-23 12:27N 38°47' W 074°26'1315.0
2015-Jul-23 11:33N 38°59' W 074°18'1515.2
2015-Jul-23 10:33N 39°13' W 074°09'1515.1
2015-Jul-23 09:33N 39°26' W 074°01'1514.9
2015-Jul-23 08:33N 39°40' W 073°54'1514.9
2015-Jul-23 07:33N 39°55' W 073°51'1515.2
2015-Jul-23 06:33N 40°10' W 073°50'1515.0
2015-Jul-23 05:34N 40°25' W 073°49'1515.1
2015-Jul-23 04:34N 40°36' W 074°03'4 4.4
2015-Jul-23 03:33N 40°40' W 074°05'0 0.0
2015-Jul-23 02:33N 40°40' W 074°05'0 0.0
2015-Jul-23 01:33N 40°40' W 074°05'0 0.0
2015-Jul-23 00:33N 40°40' W 074°05'0 0.0
2015-Jul-22 23:33N 40°40' W 074°05'0 0.0
2015-Jul-22 22:33N 40°40' W 074°05'0 0.0
2015-Jul-22 21:33N 40°40' W 074°05'0 0.0
2015-Jul-22 20:33N 40°40' W 074°05'0 0.0
2015-Jul-22 19:33N 40°40' W 074°05'0 0.0
2015-Jul-22 18:33N 40°40' W 074°05'0 0.0
2015-Jul-22 17:33N 40°40' W 074°05'0 0.0
2015-Jul-22 16:33N 40°40' W 074°05'0 0.0
2015-Jul-22 15:33N 40°40' W 074°05'0 0.0
2015-Jul-22 14:33N 40°40' W 074°05'0 0.0
2015-Jul-22 13:33N 40°40' W 074°05'0 0.0
2015-Jul-22 12:33N 40°40' W 074°05'0 0.0
2015-Jul-22 11:33N 40°40' W 074°05'0 0.0
2015-Jul-22 10:33N 40°40' W 074°05'0 0.0
2015-Jul-22 09:33N 40°40' W 074°05'0 0.0
2015-Jul-22 08:33N 40°40' W 074°05'0 0.0
2015-Jul-22 07:33N 40°40' W 074°05'0 0.0
2015-Jul-22 06:33N 40°40' W 074°05'0 0.0
2015-Jul-22 05:33N 40°40' W 074°05'0 0.0
2015-Jul-22 04:33N 40°40' W 074°05'0 0.0
2015-Jul-22 03:33N 40°40' W 074°05'0 0.0
2015-Jul-22 02:33N 40°40' W 074°05'0 0.0
2015-Jul-22 01:33N 40°40' W 074°05'1 1.2
2015-Jul-22 00:33N 40°40' W 074°04'7 7.2
2015-Jul-21 23:33N 40°33' W 074°01'1313.2
2015-Jul-21 22:33N 40°26' W 073°47'1312.7
2015-Jul-21 21:33N 40°19' W 073°33'1111.2
2015-Jul-21 20:33N 40°12' W 073°21'1110.6
2015-Jul-21 19:33N 40°05' W 073°11'1110.6
2015-Jul-21 18:33N 39°58' W 073°01'1211.8
2015-Jul-21 17:33N 39°50' W 072°49'1312.7
2015-Jul-21 16:33N 39°41' W 072°37'1110.6
2015-Jul-21 15:33N 39°33' W 072°29'1111.3
2015-Jul-21 14:33N 39°24' W 072°19'1111.4
2015-Jul-21 13:33N 39°17' W 072°08'1211.6
2015-Jul-21 12:33N 39°09' W 071°57'1211.8
2015-Jul-21 11:34N 39°01' W 071°46'1211.8
2015-Jul-21 10:33N 38°52' W 071°36'1211.6
2015-Jul-21 09:33N 38°44' W 071°25'1211.8
2015-Jul-21 08:33N 38°36' W 071°14'  

Dump ship's entire track history